KRBD/RBD METAR and TAF weather

Enter ICAO airport designator
Station Type Date Time Source
KRBD METAR 2020/08/15 09:53 UTC NOAA

KRBD 150953Z AUTO 16009KT 10SM CLR 28/22 A2986 RMK AO2 SLP099 T02830222 $


Station Type Date Time Source
KRBD Decoded METAR 2020/08/15 09:53 UTC NOAA

DALLAS EXECUTIVE AIRPORT, TX, United States (KRBD) 32-41N 096-52W 203M
Aug 15, 2020 - 05:53 AM EDT / 2020.08.15 0953 UTC
Wind: from the SSE (160 degrees) at 10 MPH (9 KT):0
Visibility: 10 mile(s):0
Sky conditions: clear
Temperature: 82.9 F (28.3 C)
Dew Point: 72.0 F (22.2 C)
Relative Humidity: 69%
Pressure (altimeter): 29.86 in. Hg (1011 hPa)
ob: KRBD 150953Z AUTO 16009KT 10SM CLR 28/22 A2986 RMK AO2 SLP099 T02830222
cycle: 10

Station Type Date Time Source
KRBD TAF UTC NOAA

Error!

Example: see airport list